ADDS METAR Data INFO
IDs: Format: Raw Decoded Include TAF

Data at: 0808 UTC 23 Jul 2018

KGSH 230753Z AUTO 30003KT 10SM SCT050 OVC060 19/17 A2987 RMK AO2 SLP110 T01890167 $
KGSH 230653Z AUTO 00000KT 10SM BKN041 OVC080 18/17 A2988 RMK AO2 SLP112 T01830167 $
KGSH 230553Z AUTO 00000KT 10SM BKN070 19/17 A2989 RMK AO2 SLP115 T01890167 10211 20189 56010 $
KGSH 230453Z AUTO 29003KT 10SM OVC070 19/16 A2989 RMK AO2 SLP117 T01940156 402610194 $
KGSH 230353Z AUTO 35004KT 10SM OVC060 19/17 A2990 RMK AO2 SLP122 T01940167 $
KGSH 230253Z AUTO 01005KT 10SM SCT055 OVC070 19/17 A2992 RMK AO2 SLP126 T01940172 51014 $
KGSH 230153Z AUTO 02005KT 10SM SCT041 BKN060 19/18 A2991 RMK AO2 SLP124 T01940178 $
KGSH 230053Z AUTO 01006KT 10SM CLR 21/16 A2989 RMK AO2 SLP118 T02060161 $
KGSH 222353Z AUTO 02009KT 10SM SCT060 21/16 A2987 RMK AO2 SLP111 60000 T02110156 10261 20211 51013 $
KGSH 222253Z AUTO 05007KT 10SM OVC055 21/16 A2986 RMK AO2 SLP107 T02110156 $
KGSH 222209Z AUTO 05008KT 10SM FEW019 SCT030 OVC037 22/16 A2985 RMK AO2 T02170161 $
KGSH 222153Z AUTO 05014G19KT 9SM FEW020 BKN028 OVC080 22/18 A2985 RMK AO2 SLP103 T02220183 $
KGSH 222053Z AUTO 05011KT 9SM FEW110 23/20 A2983 RMK AO2 RAE10 SLP097 P0000 60000 T02280200 53006 $
KGSH 222021Z AUTO 05010KT 9SM FEW014 BKN033 OVC120 22/21 A2983 RMK AO2 RAE10 P0000 T02220206 $
KGSH 222009Z AUTO 05010G21KT 9SM -RA FEW015 BKN029 OVC100 22/21 A2983 RMK AO2 P0000 T02170206 $
KGSH 222000Z AUTO 06013G22KT 2SM -RA BR SCT013 BKN028 OVC044 22/21 A2983 RMK AO2 P0000 T02170206 $
KGSH 221953Z AUTO 03016G22KT 3SM -RA BKN028 BKN038 OVC075 23/20 A2983 RMK AO2 RAB34 SLP096 P0000 T02280200 $
KGSH 221853Z AUTO 04010KT 10SM FEW026 FEW055 25/19 A2981 RMK AO2 SLP089 T02500194 $
KGSH 221753Z AUTO 03013G20KT 9SM FEW023 FEW044 BKN110 24/20 A2981 RMK AO2 RAB22E32 SLP090 P0000 6//// T02440200 10261 20206 50002 $
KGSH 221653Z AUTO 04009G17KT 8SM SCT024 25/20 A2982 RMK AO2 SLP090 T02500200 $
KGSH 221646Z AUTO 03010G20KT 8SM BKN024 25/20 A2982 RMK AO2 T02500200 $
KGSH 221553Z AUTO 03010KT 7SM SCT020 BKN100 24/21 A2981 RMK AO2 SLP091 T02440206 $
KGSH 221526Z AUTO 04007KT 6SM HZ FEW016 SCT022 BKN035 25/21 A2981 RMK AO2 T02500211 $
KGSH 221453Z AUTO 04006KT 5SM BR SCT013 BKN021 OVC044 23/21 A2981 RMK AO2 SLP089 6//// T02330211 53005 $
KGSH 221444Z AUTO 02007KT 5SM BR SCT015 BKN020 OVC036 23/21 A2981 RMK AO2 T02280206 $
KGSH 221353Z AUTO 05005KT 5SM BR OVC012 22/21 A2980 RMK AO2 SLP087 T02220206 PNO $
KGSH 221303Z AUTO 04008KT 3SM BR OVC010 21/21 A2980 RMK AO2 T02110206 PNO $
KGSH 221253Z AUTO 04008KT 3SM BR BKN008 OVC012 21/20 A2979 RMK AO2 SLP084 T02110200 PNO $
KGSH 221248Z AUTO 03008KT 3SM BR OVC010 21/20 A2979 RMK AO2 CIG 007V014 PNO $
KGSH 221235Z AUTO 03006KT 3SM BR OVC009 21/21 A2979 RMK AO2 CIG 007V012 T02110206 PNO $
KGSH 221223Z AUTO 02007KT 3SM BR OVC010 21/21 A2979 RMK AO2 CIG 007V012 T02110206 PNO $
KGSH 221153Z AUTO 03007KT 2 1/2SM BR OVC010 21/21 A2978 RMK AO2 SLP080 6//// 7//// T02060206 10211 20200 51008 PNO $
KGSH 221120Z AUTO 02006KT 2 1/2SM BR OVC010 21/20 A2978 RMK AO2 CIG 007V012 T02060200 PNO $
KGSH 221053Z AUTO 03007KT 2SM BR OVC007 21/20 A2977 RMK AO2 SLP077 T02060200 PNO $
KGSH 221051Z AUTO 02008KT 2SM BR OVC007 21/20 A2977 RMK AO2 PNO $
KGSH 221004Z AUTO 02007KT 3SM BR OVC008 20/20 A2976 RMK AO2 CIG 006V012 T02000200 PNO $
KGSH 220953Z AUTO 02006KT 3SM BR BKN010 OVC014 20/20 A2976 RMK AO2 RAE35 CIG 007V013 SLP072 T02000200 PNO $
KGSH 220927Z AUTO 02006KT 5SM -RA BR BKN011 BKN050 OVC070 20/20 A2976 RMK AO2 T02000200 PNO $
KGSH 220918Z AUTO 02007KT 4SM -RA BR SCT013 BKN050 OVC070 20/20 A2976 RMK AO2 T02000200 PNO $
KGSH 220910Z AUTO 01006KT 2 1/2SM RA BR FEW011 BKN050 OVC070 20/20 A2975 RMK AO2 T02000200 PNO $
KGSH 220900Z AUTO 02007KT 1 1/2SM +RA BR FEW024 BKN048 OVC070 20/20 A2975 RMK AO2 T02000200 PNO $
KGSH 220853Z AUTO 02008KT 2SM +RA BR SCT024 BKN046 OVC070 20/20 A2975 RMK AO2 RAB03 SLP069 6//// T02000200 58001 PNO $
KGSH 220842Z AUTO 03007KT 2SM +RA BR FEW007 BKN048 OVC090 20/20 A2975 RMK AO2 RAB03 T02000200 PNO $
KGSH 220832Z AUTO 04007KT 1 3/4SM +RA BR SCT007 BKN050 OVC070 20/19 A2976 RMK AO2 RAB03 T02000194 PNO $
KGSH 220822Z AUTO 04009KT 1 3/4SM +RA BR BKN006 BKN047 OVC075 20/20 A2975 RMK AO2 RAB03 T02000200 PNO $
KGSH 220753Z AUTO 03008KT 4SM BR BKN006 OVC020 20/20 A2975 RMK AO2 SLP069 T02000200 PNO $
KGSH 220653Z AUTO 04007KT 7SM BKN008 BKN015 OVC037 21/20 A2976 RMK AO2 RAB23E40 SLP072 T02060200 PNO $
KGSH 220632Z AUTO 04005KT 6SM -RA BR SCT007 BKN029 OVC035 21/20 A2976 RMK AO2 RAB23 T02060200 PNO $
KGSH 220553Z AUTO 03004KT 7SM BKN008 OVC065 21/20 A2976 RMK AO2 RAB11E21B24E46 SLP070 6//// T02060200 10211 20200 55001 PNO $
KGSH 220551Z AUTO 04004KT 7SM SCT008 OVC065 21/20 A2976 RMK AO2 RAB11E21B24E46 PNO $
KGSH 220523Z AUTO 03004KT 7SM BKN008 OVC021 21/20 A2976 RMK AO2 RAB11E21 CIG 006V012 T02060200 PNO $
KGSH 220502Z AUTO 04006KT 7SM FEW007 BKN021 OVC039 21/20 A2976 RMK AO2 T02060200 PNO $
KGSH 220453Z AUTO 05005KT 7SM BKN006 OVC039 21/20 A2976 RMK AO2 RAE51 SLP071 T02060200 402610200 PNO $
KGSH 220428Z AUTO 03006KT 7SM -RA BKN006 OVC019 21/20 A2976 RMK AO2 T02060200 PNO $
KGSH 220412Z AUTO 03006KT 6SM -RA BR FEW006 BKN017 OVC110 20/20 A2976 RMK AO2 T02000200 PNO $
KGSH 220353Z AUTO 02005KT 3SM RA BR BKN018 BKN045 BKN110 20/20 A2976 RMK AO2 SLP072 T02000200 PNO $
KGSH 220340Z AUTO 02005KT 6SM -RA BR BKN020 BKN075 OVC100 20/20 A2976 RMK AO2 P0000 T02000200 $
KGSH 220253Z AUTO 02005KT 7SM -RA FEW065 FEW080 SCT120 21/20 A2977 RMK AO2 SLP077 P0000 6//// T02060200 51009 $
KGSH 220209Z AUTO 01006KT 7SM -RA SCT019 BKN055 OVC110 21/21 A2976 RMK AO2 P0000 T02060206 $
KGSH 220201Z AUTO 02005KT 7SM -RA FEW005 BKN018 BKN065 21/21 A2976 RMK AO2 P0000 T02060206 $
KGSH 220153Z AUTO 02007KT 8SM -RA SCT014 BKN070 BKN110 21/21 A2976 RMK AO2 SLP074 T02110206 PNO $
KGSH 220142Z AUTO 01005KT 6SM -RA BR SCT018 BKN050 BKN110 21/21 A2976 RMK AO2 T02110206 PNO $
KGSH 220107Z AUTO 35006KT 4SM -RA BR FEW008 BKN029 OVC065 21/21 A2976 RMK AO2 T02110206 PNO $
KGSH 220053Z AUTO 34008KT 3SM -RA BR FEW016 BKN065 OVC110 21/21 A2975 RMK AO2 SLP070 T02110206 PNO $
KGSH 220021Z AUTO 34008KT 3SM -RA BR FEW008 SCT039 OVC110 21/21 A2974 RMK AO2 T02110206 PNO $
KGSH 212353Z AUTO 36005KT 4SM -RA BR SCT010 BKN031 OVC060 21/21 A2974 RMK AO2 SLP068 6//// T02110206 10261 20211 51014 PNO $
KGSH 212342Z AUTO 01005KT 3SM -RA BR SCT008 OVC065 21/21 A2974 RMK AO2 T02110206 PNO $
KGSH 212305Z AUTO 34007KT 3SM -RA BR FEW041 BKN050 OVC060 21/21 A2974 RMK AO2 T02110206 PNO $
KGSH 212253Z AUTO 34007KT 2 1/2SM RA BR BKN048 OVC060 22/21 A2973 RMK AO2 RAB37 SLP064 T02170206 PNO $
KGSH 212153Z AUTO 06007KT 10SM FEW080 24/19 A2971 RMK AO2 SLP057 T02440194 $
KGSH 212053Z AUTO 05007KT 10SM FEW024 BKN070 OVC080 25/20 A2970 RMK AO2 SLP051 T02500200 53002 $